createdAt,value
2022-08-21T00:02:18.648Z,2.53
2022-08-21T00:05:20.654Z,3.50
2022-08-21T00:08:22.222Z,3.10
2022-08-21T00:11:24.209Z,2.87
2022-08-21T00:14:25.695Z,3.07
2022-08-21T00:17:27.544Z,3.13
2022-08-21T00:20:29.238Z,3.00
2022-08-21T00:23:31.091Z,3.27
2022-08-21T00:26:33.313Z,2.90
2022-08-21T00:29:34.778Z,3.27
2022-08-21T00:32:38.260Z,3.20
2022-08-21T00:35:42.465Z,2.93
2022-08-21T00:38:44.031Z,3.37
2022-08-21T00:41:46.216Z,3.10
2022-08-21T00:44:49.875Z,2.80
2022-08-21T00:47:52.951Z,3.50
2022-08-21T00:51:09.469Z,2.80
2022-08-21T00:54:18.498Z,3.10
2022-08-21T00:57:26.698Z,2.97
2022-08-21T01:00:33.101Z,3.37
2022-08-21T01:03:36.351Z,3.10
2022-08-21T01:06:37.868Z,3.20
2022-08-21T01:09:41.506Z,2.97
2022-08-21T01:12:43.407Z,3.30
2022-08-21T01:15:49.725Z,3.23
2022-08-21T01:18:52.171Z,3.47
2022-08-21T01:21:54.600Z,3.30
2022-08-21T01:24:56.059Z,3.43
2022-08-21T01:28:00.063Z,3.70
2022-08-21T01:31:04.115Z,3.73
2022-08-21T01:34:05.767Z,3.37
2022-08-21T01:37:07.318Z,3.97
2022-08-21T01:40:10.037Z,3.57
2022-08-21T01:43:11.568Z,3.73
2022-08-21T01:46:13.906Z,4.20
2022-08-21T01:49:16.594Z,3.60
2022-08-21T01:52:18.201Z,3.60
2022-08-21T01:55:20.917Z,3.90
2022-08-21T01:58:22.762Z,3.20
2022-08-21T02:01:24.275Z,3.60
2022-08-21T02:04:25.963Z,3.60
2022-08-21T02:07:27.471Z,3.80
2022-08-21T02:10:32.092Z,3.10
2022-08-21T02:13:33.593Z,3.77
2022-08-21T02:16:35.489Z,3.50
2022-08-21T02:19:40.380Z,3.03
2022-08-21T02:22:42.286Z,3.50
2022-08-21T02:25:43.802Z,3.67
2022-08-21T02:28:45.490Z,3.50
2022-08-21T02:31:46.924Z,3.10
2022-08-21T02:34:48.348Z,2.60
2022-08-21T02:37:56.619Z,3.10
2022-08-21T02:40:58.369Z,3.30
2022-08-21T02:43:59.800Z,3.00
2022-08-21T02:47:01.306Z,2.80
2022-08-21T02:50:03.566Z,2.97
2022-08-21T02:53:07.442Z,3.17
2022-08-21T02:56:11.499Z,3.13
2022-08-21T02:59:13.507Z,3.10
2022-08-21T03:02:15.662Z,2.80
2022-08-21T03:05:18.520Z,3.30
2022-08-21T03:08:20.589Z,3.07
2022-08-21T03:11:22.679Z,2.73
2022-08-21T03:14:24.127Z,2.70
2022-08-21T03:17:29.799Z,2.90
2022-08-21T03:20:33.384Z,2.70
2022-08-21T03:23:35.322Z,2.73
2022-08-21T03:26:36.795Z,2.93
2022-08-21T03:29:41.864Z,3.10
2022-08-21T03:32:43.782Z,3.10
2022-08-21T03:35:48.028Z,3.00
2022-08-21T03:38:49.486Z,3.20
2022-08-21T03:41:50.913Z,3.00
2022-08-21T03:44:52.688Z,2.90
2022-08-21T03:48:02.814Z,3.50
2022-08-21T03:51:04.546Z,3.43
2022-08-21T03:54:06.020Z,3.20
2022-08-21T03:57:08.628Z,3.10
2022-08-21T04:00:12.892Z,3.30
2022-08-21T04:03:14.707Z,3.10
2022-08-21T04:06:16.141Z,3.60
2022-08-21T04:09:19.387Z,3.27
2022-08-21T04:12:21.847Z,2.93
2022-08-21T04:15:25.886Z,3.20
2022-08-21T04:18:27.478Z,3.40
2022-08-21T04:21:29.240Z,3.40
2022-08-21T04:24:30.717Z,3.80
2022-08-21T04:27:32.192Z,4.00
2022-08-21T04:30:33.928Z,3.37
2022-08-21T04:33:35.495Z,3.00
2022-08-21T04:36:36.953Z,3.23
2022-08-21T04:39:38.423Z,3.30
2022-08-21T04:43:05.330Z,3.30
2022-08-21T04:46:07.017Z,3.57
2022-08-21T04:49:08.445Z,3.23
2022-08-21T04:52:11.013Z,2.80
2022-08-21T04:55:13.091Z,3.27
2022-08-21T04:58:18.264Z,3.37
2022-08-21T05:01:22.419Z,3.03
2022-08-21T05:04:27.670Z,3.60
2022-08-21T05:07:42.080Z,3.07
2022-08-21T05:10:45.290Z,2.93
2022-08-21T05:13:47.849Z,3.20
2022-08-21T05:16:56.460Z,2.93
2022-08-21T05:19:57.897Z,3.57
2022-08-21T05:22:59.443Z,3.00
2022-08-21T05:26:02.004Z,3.30
2022-08-21T05:29:04.413Z,3.13
2022-08-21T05:32:13.316Z,3.10
2022-08-21T05:35:14.901Z,3.20
2022-08-21T05:38:18.382Z,3.60
2022-08-21T05:41:19.983Z,3.30
2022-08-21T05:44:21.478Z,3.33
2022-08-21T05:47:24.452Z,3.40
2022-08-21T05:50:28.405Z,3.40
2022-08-21T05:53:34.596Z,3.60
2022-08-21T05:56:36.043Z,3.33
2022-08-21T05:59:38.595Z,3.70
2022-08-21T06:02:41.096Z,3.30
2022-08-21T06:05:43.705Z,3.50
2022-08-21T06:08:45.494Z,3.20
2022-08-21T06:11:46.909Z,3.63
2022-08-21T06:14:48.502Z,3.87
2022-08-21T06:17:49.965Z,2.83
2022-08-21T06:20:51.423Z,3.57
2022-08-21T06:23:52.852Z,3.83
2022-08-21T06:26:54.903Z,3.70
2022-08-21T06:29:58.366Z,3.43
2022-08-21T06:33:00.136Z,3.90
2022-08-21T06:36:01.707Z,3.77
2022-08-21T06:39:10.293Z,3.70
2022-08-21T06:42:27.957Z,3.70
2022-08-21T06:45:32.228Z,3.97
2022-08-21T06:48:34.960Z,3.70
2022-08-21T06:51:36.386Z,3.97
2022-08-21T06:54:38.827Z,4.20
2022-08-21T06:57:40.531Z,3.67
2022-08-21T07:00:52.378Z,3.90
2022-08-21T07:03:53.959Z,3.50
2022-08-21T07:06:55.710Z,3.60
2022-08-21T07:09:57.127Z,3.90
2022-08-21T07:13:00.484Z,3.80
2022-08-21T07:16:04.205Z,3.47
2022-08-21T07:19:05.933Z,4.10
2022-08-21T07:22:08.208Z,3.80
2022-08-21T07:25:09.856Z,3.80
2022-08-21T07:28:11.408Z,3.70
2022-08-21T07:31:15.591Z,3.77
2022-08-21T07:34:17.370Z,4.03
2022-08-21T07:37:18.813Z,3.70
2022-08-21T07:40:22.014Z,3.70
2022-08-21T07:43:23.610Z,3.93
2022-08-21T07:46:26.365Z,3.90
2022-08-21T07:49:28.796Z,3.70
2022-08-21T07:52:31.190Z,4.03
2022-08-21T07:55:33.444Z,3.80
2022-08-21T07:58:35.311Z,3.77
2022-08-21T08:01:36.785Z,3.80
2022-08-21T08:04:38.217Z,3.80
2022-08-21T08:07:52.478Z,3.87
2022-08-21T08:10:57.217Z,3.37
2022-08-21T08:14:00.329Z,3.80
2022-08-21T08:17:03.397Z,3.47
2022-08-21T08:20:09.396Z,3.90
2022-08-21T08:23:12.326Z,3.87
2022-08-21T08:26:15.302Z,4.07
2022-08-21T08:29:16.729Z,3.97
2022-08-21T08:32:18.851Z,4.23
2022-08-21T08:35:24.366Z,4.20
2022-08-21T08:38:26.731Z,4.20
2022-08-21T08:41:30.910Z,4.37
2022-08-21T08:44:32.692Z,4.17
2022-08-21T08:47:38.438Z,5.27
2022-08-21T08:50:49.335Z,4.57
2022-08-21T08:54:00.021Z,4.23
2022-08-21T08:57:03.785Z,4.20
2022-08-21T09:00:10.988Z,4.70
2022-08-21T09:03:12.455Z,4.30
2022-08-21T09:06:41.208Z,3.90
2022-08-21T09:09:56.531Z,4.07
2022-08-21T09:13:07.245Z,3.80
2022-08-21T09:16:41.799Z,3.43
2022-08-21T09:20:12.764Z,3.90
2022-08-21T09:23:41.985Z,3.77
2022-08-21T09:27:06.057Z,4.20
2022-08-21T09:30:10.037Z,3.80
2022-08-21T09:33:13.873Z,3.73
2022-08-21T09:36:26.878Z,3.73
2022-08-21T09:39:31.098Z,4.10
2022-08-21T09:42:33.193Z,3.37
2022-08-21T09:45:35.691Z,4.40
2022-08-21T09:48:46.459Z,3.75
2022-08-21T09:51:53.810Z,3.97
2022-08-21T09:54:56.931Z,3.40
2022-08-21T09:57:58.445Z,3.25
2022-08-21T10:01:03.647Z,3.47
2022-08-21T10:04:09.371Z,4.00
2022-08-21T10:07:14.859Z,3.90
2022-08-21T10:10:24.270Z,3.45
2022-08-21T10:13:42.948Z,3.38
2022-08-21T10:16:51.961Z,3.40
2022-08-21T10:20:15.874Z,3.40
2022-08-21T10:23:36.981Z,3.67
2022-08-21T10:27:00.285Z,3.45
2022-08-21T10:30:08.071Z,3.35
2022-08-21T10:33:17.228Z,3.30
2022-08-21T10:36:36.594Z,3.35
2022-08-21T10:40:05.808Z,3.60
2022-08-21T10:43:35.871Z,3.25
2022-08-21T10:47:05.446Z,3.17
2022-08-21T10:50:28.817Z,3.58
2022-08-21T10:53:42.352Z,2.85
2022-08-21T10:56:45.487Z,2.97
2022-08-21T11:00:00.578Z,3.40
2022-08-21T11:03:05.264Z,3.15
2022-08-21T11:06:13.998Z,3.50
2022-08-21T11:09:19.895Z,3.35
2022-08-21T11:12:30.244Z,3.22
2022-08-21T11:15:49.044Z,3.13
2022-08-21T11:18:58.933Z,2.83
2022-08-21T11:22:14.229Z,2.90
2022-08-21T11:25:36.529Z,2.80
2022-08-21T11:28:45.784Z,3.13
2022-08-21T11:32:23.812Z,2.80
2022-08-21T11:35:35.559Z,3.15
2022-08-21T11:38:52.440Z,2.88
2022-08-21T11:42:30.676Z,3.03
2022-08-21T11:45:48.613Z,2.95
2022-08-21T11:49:05.250Z,3.00
2022-08-21T11:52:15.753Z,2.72
2022-08-21T11:55:33.587Z,2.63
2022-08-21T11:58:44.337Z,2.72
2022-08-21T12:01:46.554Z,2.78
2022-08-21T12:05:08.476Z,2.80
2022-08-21T12:08:10.338Z,2.67
2022-08-21T12:11:17.813Z,2.55
2022-08-21T12:14:19.696Z,2.58
2022-08-21T12:17:24.557Z,2.63
2022-08-21T12:20:58.101Z,2.63
2022-08-21T12:24:17.414Z,2.75
2022-08-21T12:27:31.146Z,2.50
2022-08-21T12:30:39.807Z,2.60
2022-08-21T12:33:41.951Z,2.58
2022-08-21T12:36:48.694Z,2.80
2022-08-21T12:39:53.316Z,2.38
2022-08-21T12:42:59.069Z,2.40
2022-08-21T12:46:01.744Z,2.33
2022-08-21T12:49:13.501Z,2.17
2022-08-21T12:52:23.695Z,2.65
2022-08-21T12:55:31.957Z,2.33
2022-08-21T12:58:33.434Z,2.65
2022-08-21T13:01:52.424Z,2.35
2022-08-21T13:04:56.419Z,2.30
2022-08-21T13:07:58.289Z,2.38
2022-08-21T13:11:09.234Z,2.42
2022-08-21T13:14:30.185Z,2.53
2022-08-21T13:17:37.256Z,2.15
2022-08-21T13:20:44.139Z,2.22
2022-08-21T13:23:46.067Z,2.55
2022-08-21T13:26:51.303Z,2.40
2022-08-21T13:30:23.024Z,2.50
2022-08-21T13:33:36.420Z,2.17
2022-08-21T13:36:42.818Z,2.60
2022-08-21T13:39:50.608Z,2.25
2022-08-21T13:42:53.338Z,2.50
2022-08-21T13:45:56.599Z,2.63
2022-08-21T13:49:00.155Z,2.35
2022-08-21T13:52:02.029Z,2.20
2022-08-21T13:55:14.129Z,2.22
2022-08-21T13:58:29.932Z,2.13
2022-08-21T14:01:37.744Z,2.20
2022-08-21T14:04:55.644Z,2.40
2022-08-21T14:08:20.447Z,2.40
2022-08-21T14:11:22.886Z,2.25
2022-08-21T14:14:29.637Z,2.10
2022-08-21T14:17:42.333Z,2.20
2022-08-21T14:20:45.857Z,2.45
2022-08-21T14:23:47.401Z,2.22
2022-08-21T14:26:59.405Z,2.25
2022-08-21T14:30:13.999Z,2.05
2022-08-21T14:33:25.753Z,2.30
2022-08-21T14:36:27.879Z,2.30
2022-08-21T14:39:29.313Z,2.63
2022-08-21T14:42:30.990Z,2.45
2022-08-21T14:45:32.506Z,2.25
2022-08-21T14:48:33.957Z,2.40
2022-08-21T14:51:35.387Z,2.30
2022-08-21T14:54:36.917Z,2.35
2022-08-21T14:57:39.284Z,2.17
2022-08-21T15:00:40.814Z,2.40
2022-08-21T15:03:42.593Z,2.70
2022-08-21T15:06:44.443Z,2.53
2022-08-21T15:09:45.929Z,2.45
2022-08-21T15:12:47.381Z,2.60
2022-08-21T15:15:53.539Z,2.40
2022-08-21T15:18:55.342Z,2.38
2022-08-21T15:21:56.797Z,2.75
2022-08-21T15:24:58.234Z,2.53
2022-08-21T15:28:00.533Z,2.63
2022-08-21T15:31:02.265Z,2.40
2022-08-21T15:34:03.995Z,3.00
2022-08-21T15:37:08.793Z,2.50
2022-08-21T15:40:10.962Z,2.60
2022-08-21T15:43:30.025Z,2.72
2022-08-21T15:46:32.295Z,2.85
2022-08-21T15:49:33.785Z,2.58
2022-08-21T15:52:35.937Z,2.75
2022-08-21T15:55:37.433Z,2.35
2022-08-21T15:58:39.429Z,2.92
2022-08-21T16:01:44.739Z,4.40
2022-08-21T16:04:46.719Z,3.53
2022-08-21T16:07:49.404Z,2.85
2022-08-21T16:10:52.947Z,2.72
2022-08-21T16:13:56.905Z,2.65
2022-08-21T16:16:59.007Z,2.90
2022-08-21T16:20:03.638Z,2.63
2022-08-21T16:23:05.846Z,2.72
2022-08-21T16:26:09.685Z,2.75
2022-08-21T16:29:16.438Z,2.63
2022-08-21T16:32:18.460Z,2.90
2022-08-21T16:35:21.319Z,2.80
2022-08-21T16:38:23.947Z,3.28
2022-08-21T16:41:33.271Z,3.20
2022-08-21T16:44:35.470Z,2.92
2022-08-21T16:47:39.029Z,2.90
2022-08-21T16:50:40.544Z,2.80
2022-08-21T16:53:43.679Z,3.15
2022-08-21T16:56:47.895Z,3.20
2022-08-21T16:59:49.719Z,3.13
2022-08-21T17:02:54.638Z,2.90
2022-08-21T17:05:56.191Z,2.70
2022-08-21T17:08:58.972Z,3.08
2022-08-21T17:12:00.425Z,2.65
2022-08-21T17:15:07.265Z,2.92
2022-08-21T17:18:14.496Z,2.95
2022-08-21T17:21:18.667Z,2.83
2022-08-21T17:24:21.038Z,2.90
2022-08-21T17:27:26.780Z,2.60
2022-08-21T17:30:28.616Z,2.60
2022-08-21T17:33:38.844Z,3.33
2022-08-21T17:36:40.306Z,3.20
2022-08-21T17:39:41.870Z,2.90
2022-08-21T17:42:45.363Z,3.70
2022-08-21T17:45:47.049Z,3.00
2022-08-21T17:48:48.469Z,2.92
2022-08-21T17:51:50.118Z,3.20
2022-08-21T17:54:51.583Z,3.00
2022-08-21T17:57:53.286Z,3.00
2022-08-21T18:00:54.902Z,3.17
2022-08-21T18:03:56.891Z,2.67
2022-08-21T18:06:58.322Z,3.47
2022-08-21T18:10:01.847Z,3.13
2022-08-21T18:13:05.699Z,3.60
2022-08-21T18:16:08.183Z,3.33
2022-08-21T18:19:15.227Z,3.85
2022-08-21T18:22:16.670Z,3.33
2022-08-21T18:25:18.420Z,3.60
2022-08-21T18:28:20.585Z,3.63
2022-08-21T18:31:22.110Z,3.90
2022-08-21T18:34:30.190Z,3.78
2022-08-21T18:37:32.003Z,4.10
2022-08-21T18:40:36.631Z,4.13
2022-08-21T18:43:38.360Z,4.22
2022-08-21T18:46:40.203Z,3.97
2022-08-21T18:49:41.846Z,3.97
2022-08-21T18:52:52.904Z,4.60
2022-08-21T18:59:17.331Z,4.50
2022-08-21T19:02:19.152Z,4.68
2022-08-21T19:05:23.063Z,5.00
2022-08-21T19:08:28.608Z,4.53
2022-08-21T19:11:30.822Z,5.20
2022-08-21T19:14:33.165Z,4.95
2022-08-21T19:17:35.316Z,4.40
2022-08-21T19:20:41.431Z,4.55
2022-08-21T19:23:44.397Z,4.72
2022-08-21T19:26:45.964Z,4.55
2022-08-21T19:29:47.475Z,4.40
2022-08-21T19:32:51.067Z,4.50
2022-08-21T19:35:53.241Z,4.40
2022-08-21T19:38:54.663Z,4.28
2022-08-21T19:41:58.210Z,5.07
2022-08-21T19:44:59.651Z,5.25
2022-08-21T19:48:01.357Z,4.88
2022-08-21T19:51:05.097Z,4.57
2022-08-21T19:54:14.457Z,4.70
2022-08-21T19:57:19.133Z,4.45
2022-08-21T20:00:20.592Z,4.35
2022-08-21T20:03:22.063Z,4.07
2022-08-21T20:06:24.484Z,4.38
2022-08-21T20:09:25.985Z,4.10
2022-08-21T20:12:28.559Z,3.90
2022-08-21T20:15:29.973Z,3.88
2022-08-21T20:18:33.485Z,3.53
2022-08-21T20:21:43.546Z,3.22
2022-08-21T20:24:46.606Z,3.20
2022-08-21T20:27:48.592Z,3.33
2022-08-21T20:31:40.743Z,3.63
2022-08-21T20:38:03.777Z,4.22
2022-08-21T20:41:17.891Z,4.10
2022-08-21T20:44:32.887Z,3.92
2022-08-21T20:47:36.180Z,3.67
2022-08-21T20:50:44.601Z,3.60
2022-08-21T20:54:02.521Z,3.50
2022-08-21T20:57:18.510Z,3.20
2022-08-21T21:00:22.637Z,3.20
2022-08-21T21:03:55.393Z,3.22
2022-08-21T21:06:59.100Z,3.38
2022-08-21T21:10:05.229Z,3.45
2022-08-21T21:13:16.808Z,3.60
2022-08-21T21:16:33.693Z,3.47
2022-08-21T21:19:55.645Z,3.60
2022-08-21T21:23:10.991Z,3.33
2022-08-21T21:26:29.136Z,3.47
2022-08-21T21:29:40.058Z,3.07
2022-08-21T21:32:43.229Z,3.07
2022-08-21T21:35:54.185Z,3.10
2022-08-21T21:39:10.161Z,3.90
2022-08-21T21:42:49.315Z,3.97
2022-08-21T21:46:15.087Z,3.57
2022-08-21T21:49:38.099Z,3.23
2022-08-21T21:52:59.849Z,3.17
2022-08-21T21:56:23.798Z,3.20
2022-08-21T21:59:55.421Z,2.83
2022-08-21T22:03:09.474Z,2.87
2022-08-21T22:06:25.792Z,3.13
2022-08-21T22:09:43.662Z,2.93
2022-08-21T22:12:53.801Z,3.00
2022-08-21T22:15:56.115Z,3.50
2022-08-21T22:19:02.306Z,2.90
2022-08-21T22:22:21.774Z,3.17
2022-08-21T22:25:33.205Z,3.40
2022-08-21T22:28:44.103Z,3.00
2022-08-21T22:32:06.845Z,2.80
2022-08-21T22:35:22.643Z,3.30
2022-08-21T22:38:27.258Z,3.00
2022-08-21T22:41:31.623Z,2.90
2022-08-21T22:44:47.899Z,3.20
2022-08-21T22:47:52.090Z,3.20
2022-08-21T22:51:05.633Z,3.30
2022-08-21T22:54:16.719Z,3.17
2022-08-21T22:57:28.722Z,3.13
2022-08-21T23:00:48.187Z,3.13
2022-08-21T23:07:51.381Z,3.80
2022-08-21T23:11:02.866Z,3.50
2022-08-21T23:14:06.902Z,3.40
2022-08-21T23:17:32.465Z,4.00
2022-08-21T23:20:35.127Z,4.30
2022-08-21T23:24:19.132Z,4.40
2022-08-21T23:27:46.228Z,4.07
2022-08-21T23:31:03.698Z,4.00
2022-08-21T23:34:25.589Z,3.70
2022-08-21T23:38:09.389Z,3.73
2022-08-21T23:41:42.690Z,3.53
2022-08-21T23:45:13.649Z,3.40
2022-08-21T23:48:55.460Z,3.33
2022-08-21T23:52:24.045Z,3.70
2022-08-21T23:55:42.492Z,3.70
2022-08-21T23:58:59.926Z,3.43
